Time;durP1;ratioP1;P1;durP2;ratioP2;P2;SDS_P1;SDS_P2;PMS_P1;PMS_P2;Temp;Humidity;BMP_temperature;BMP_pressure;BME280_temperature;BME280_humidity;BME280_pressure;Samples;Min_cycle;Max_cycle;Signal;HPM_P1;HPM_P2
2023/03/22 00:01:22;;;;;;;20.50;15.77;;;;;;;9.21;100.00;100635.69;7397415;19;20492;-72
2023/03/22 00:03:52;;;;;;;23.25;15.98;;;;;;;9.21;100.00;100637.41;7396690;19;20087;-72
2023/03/22 00:06:21;;;;;;;20.20;15.52;;;;;;;9.21;100.00;100648.78;7397564;19;20021;-72
2023/03/22 00:08:52;;;;;;;19.65;15.35;;;;;;;9.21;100.00;100647.88;7397462;19;20078;-72
2023/03/22 00:11:22;;;;;;;22.05;15.20;;;;;;;9.19;100.00;100644.47;7397637;19;20025;-72
2023/03/22 00:13:54;;;;;;;20.17;15.82;;;;;;;9.15;100.00;100651.50;7394915;19;20022;-72
2023/03/22 00:16:22;;;;;;;22.77;16.05;;;;;;;9.15;100.00;100654.09;7397549;19;20025;-72
2023/03/22 00:18:51;;;;;;;23.05;16.45;;;;;;;9.15;100.00;100654.09;7394862;19;20031;-72
2023/03/22 00:21:20;;;;;;;23.50;17.30;;;;;;;9.13;100.00;100648.03;7395225;19;20035;-72
2023/03/22 00:23:49;;;;;;;22.13;16.25;;;;;;;9.09;100.00;100639.34;7395718;19;20081;-71
2023/03/22 00:26:18;;;;;;;24.90;15.88;;;;;;;9.06;100.00;100634.19;7394464;19;20379;-72
2023/03/22 00:28:46;;;;;;;24.85;17.13;;;;;;;9.03;100.00;100641.22;7397204;19;20019;-71
2023/03/22 00:31:18;;;;;;;22.98;16.50;;;;;;;8.99;100.00;100644.78;7396215;19;20507;-71
2023/03/22 00:33:47;;;;;;;21.92;16.83;;;;;;;8.94;100.00;100637.88;7394362;19;20367;-71
2023/03/22 00:36:15;;;;;;;21.60;16.83;;;;;;;8.90;100.00;100638.81;7396421;19;20027;-71
2023/03/22 00:38:44;;;;;;;22.98;17.17;;;;;;;8.85;100.00;100632.78;7396442;19;20022;-71
2023/03/22 00:41:21;;;;;;;23.27;17.88;;;;;;;8.81;100.00;100638.97;7394275;19;20074;-71
2023/03/22 00:43:55;;;;;;;22.00;17.30;;;;;;;8.77;100.00;100632.03;7394869;19;20542;-72
2023/03/22 00:46:27;;;;;;;26.08;18.67;;;;;;;8.74;100.00;100634.72;7396186;19;20022;-72
2023/03/22 00:48:56;;;;;;;27.33;17.85;;;;;;;8.71;100.00;100635.63;7394197;19;20523;-72
2023/03/22 00:51:24;;;;;;;32.38;19.77;;;;;;;8.68;100.00;100627.84;7394804;19;20022;-71
2023/03/22 00:53:53;;;;;;;23.33;17.42;;;;;;;8.65;100.00;100638.34;7394553;19;20384;-72
2023/03/22 00:56:24;;;;;;;27.63;18.85;;;;;;;8.62;100.00;100635.78;7395873;19;20026;-71
2023/03/22 00:58:52;;;;;;;32.97;19.08;;;;;;;8.60;100.00;100629.69;7396134;19;20033;-71
2023/03/22 01:01:21;;;;;;;25.15;18.80;;;;;;;8.58;100.00;100636.69;7395832;19;20018;-72
2023/03/22 01:03:52;;;;;;;29.05;18.95;;;;;;;8.55;100.00;100637.59;7394320;19;20485;-72
2023/03/22 01:06:20;;;;;;;28.75;18.60;;;;;;;8.53;100.00;100636.78;7396077;19;20019;-71
2023/03/22 01:08:49;;;;;;;29.95;20.00;;;;;;;8.51;100.00;100628.09;7395491;19;20010;-72
2023/03/22 01:11:19;;;;;;;25.80;18.52;;;;;;;8.49;100.00;100624.63;7395092;19;20011;-72
2023/03/22 01:13:47;;;;;;;27.25;17.85;;;;;;;8.47;100.00;100622.03;7394320;19;20405;-70
2023/03/22 01:16:16;;;;;;;26.98;19.65;;;;;;;8.46;100.00;100624.69;7395350;19;20019;-74
2023/03/22 01:18:44;;;;;;;30.98;19.92;;;;;;;8.43;100.00;100630.78;7395276;19;20035;-72
2023/03/22 01:21:16;;;;;;;26.48;18.65;;;;;;;8.41;100.00;100616.00;7394849;19;20428;-73
2023/03/22 01:23:44;;;;;;;27.75;19.20;;;;;;;8.40;100.00;100616.91;7394304;19;20031;-71
2023/03/22 01:26:13;;;;;;;29.85;19.33;;;;;;;8.38;100.00;100621.28;7395073;19;20018;-72
2023/03/22 01:28:41;;;;;;;29.60;19.30;;;;;;;8.35;100.00;100610.88;7393271;19;20014;-71
2023/03/22 01:31:10;;;;;;;33.80;20.13;;;;;;;8.34;100.00;100614.38;7394919;19;20018;-72
2023/03/22 01:33:38;;;;;;;27.45;19.40;;;;;;;8.30;100.00;100614.44;7399641;19;20556;-71
2023/03/22 01:36:08;;;;;;;28.40;17.85;;;;;;;8.29;100.00;100606.59;7402040;19;20086;-72
2023/03/22 01:38:39;;;;;;;27.65;19.20;;;;;;;8.26;100.00;100607.50;7399562;19;20018;-72
2023/03/22 01:41:09;;;;;;;27.20;18.70;;;;;;;8.23;100.00;100599.72;7399306;19;20029;-72
2023/03/22 01:43:37;;;;;;;24.88;18.17;;;;;;;8.21;100.00;100601.47;7400754;19;20019;-71
2023/03/22 01:46:06;;;;;;;27.48;18.92;;;;;;;8.18;100.00;100598.06;7404068;19;20022;-72
2023/03/22 01:48:40;;;;;;;25.55;18.60;;;;;;;8.15;100.00;100601.56;7400965;19;20078;-74
2023/03/22 01:51:10;;;;;;;;;;;;;;;8.12;100.00;100599.84;7404933;19;20015;-73
2023/03/22 01:53:47;;;;;;;24.50;17.75;;;;;;;8.09;100.00;100593.81;7400430;19;19919;-71
2023/03/22 01:56:16;;;;;;;31.63;20.30;;;;;;;8.06;100.00;100599.97;7402293;19;20022;-71
2023/03/22 01:58:44;;;;;;;25.30;18.42;;;;;;;8.02;100.00;100590.41;7401439;19;20384;-71
2023/03/22 02:01:13;;;;;;;26.90;18.90;;;;;;;7.98;100.00;100584.34;7401666;19;20032;-71
2023/03/22 02:03:50;;;;;;;27.08;20.42;;;;;;;7.95;100.00;100579.19;7400092;19;20023;-71
2023/03/22 02:06:19;;;;;;;27.52;19.73;;;;;;;7.92;100.00;100573.13;7399186;19;20014;-71
2023/03/22 02:08:51;;;;;;;26.17;18.63;;;;;;;7.89;100.00;100573.19;7401086;19;20022;-71
2023/03/22 02:11:26;;;;;;;25.92;18.35;;;;;;;7.83;100.00;100569.78;7401734;19;20019;-71
2023/03/22 02:14:10;;;;;;;34.30;19.15;;;;;;;7.83;100.00;100579.34;7400423;19;20039;-69
2023/03/22 02:16:51;;;;;;;26.63;19.52;;;;;;;7.78;100.00;100568.09;7401390;19;20025;-69
2023/03/22 02:19:50;;;;;;;30.42;19.83;;;;;;;7.75;100.00;100575.97;7401526;19;20014;-69
2023/03/22 02:22:51;;;;;;;27.90;19.13;;;;;;;7.71;100.00;100571.66;7400338;19;20023;-69
2023/03/22 02:26:03;;;;;;;33.67;20.33;;;;;;;7.68;100.00;100575.19;7398151;19;20015;-69
2023/03/22 02:28:44;;;;;;;33.90;20.77;;;;;;;7.66;100.00;100575.19;7401183;19;20031;-69
2023/03/22 02:31:41;;;;;;;35.15;21.15;;;;;;;7.65;100.00;100581.31;7401117;19;20019;-70
2023/03/22 02:34:39;;;;;;;32.88;21.02;;;;;;;7.66;100.00;100582.19;7397616;19;20094;-70
2023/03/22 02:37:58;;;;;;;32.70;22.08;;;;;;;7.65;100.00;100572.63;7398408;19;20018;-70
2023/03/22 02:40:35;;;;;;;32.47;23.15;;;;;;;7.63;100.00;100572.66;7399302;19;20514;-70
2023/03/22 02:43:16;;;;;;;36.88;22.40;;;;;;;7.63;100.00;100564.81;7399245;19;20035;-70
2023/03/22 02:45:50;;;;;;;34.17;22.33;;;;;;;7.63;100.00;100570.03;7399190;19;20515;-70
2023/03/22 02:48:28;;;;;;;33.58;22.75;;;;;;;7.62;100.00;100563.06;7399691;19;20018;-71
2023/03/22 02:51:00;;;;;;;36.25;23.48;;;;;;;7.63;100.00;100567.41;7400403;19;20027;-71
2023/03/22 02:53:36;;;;;;;35.92;23.17;;;;;;;7.63;100.00;100564.81;7398361;19;20022;-70
2023/03/22 02:56:12;;;;;;;33.35;21.55;;;;;;;7.63;100.00;100564.81;7402262;19;20423;-69
2023/03/22 02:58:45;;;;;;;39.50;23.52;;;;;;;7.64;100.00;100565.66;7400418;19;20032;-70
2023/03/22 03:01:20;;;;;;;35.47;22.42;;;;;;;7.64;100.00;100558.69;7399427;19;20015;-69
2023/03/22 03:03:54;;;;;;;35.58;21.75;;;;;;;7.63;100.00;100554.38;7398404;19;20086;-70
2023/03/22 03:06:25;;;;;;;33.22;21.45;;;;;;;7.65;100.00;100551.72;7399900;19;20014;-70
2023/03/22 03:08:56;;;;;;;37.25;23.15;;;;;;;7.65;100.00;100549.13;7399840;19;20029;-70
2023/03/22 03:11:27;;;;;;;33.03;21.65;;;;;;;7.64;100.00;100548.22;7399731;19;20025;-70
2023/03/22 03:13:56;;;;;;;31.58;21.33;;;;;;;7.64;100.00;100545.63;7397769;19;20025;-70
2023/03/22 03:16:28;;;;;;;36.50;22.55;;;;;;;7.64;100.00;100552.59;7396989;19;20181;-70
2023/03/22 03:19:02;;;;;;;32.85;21.73;;;;;;;7.62;100.00;100563.06;7402150;19;20079;-70
2023/03/22 03:21:37;;;;;;;32.67;21.60;;;;;;;7.61;100.00;100561.34;7400156;19;20014;-70
2023/03/22 03:24:29;;;;;;;30.40;21.35;;;;;;;7.59;100.00;100560.47;7398669;19;20070;-69
2023/03/22 03:27:06;;;;;;;36.22;22.63;;;;;;;7.59;100.00;100565.72;7401144;19;20014;-70
2023/03/22 03:29:43;;;;;;;31.45;21.98;;;;;;;7.55;100.00;100569.25;7396591;19;20075;-70
2023/03/22 03:32:17;;;;;;;31.52;20.38;;;;;;;7.54;100.00;100564.91;7398827;19;20029;-70
2023/03/22 03:34:51;;;;;;;32.75;21.55;;;;;;;7.52;100.00;100560.59;7396219;19;20025;-70
2023/03/22 03:37:23;;;;;;;30.90;20.98;;;;;;;7.51;100.00;100564.94;7398516;19;20021;-70
2023/03/22 03:39:56;;;;;;;34.45;20.45;;;;;;;7.48;100.00;100563.25;7398794;19;20102;-70
2023/03/22 03:42:29;;;;;;;29.88;21.00;;;;;;;7.47;100.00;100558.06;7396451;19;20417;-70
2023/03/22 03:44:58;;;;;;;34.47;21.25;;;;;;;7.45;100.00;100565.88;7398654;19;20078;-70
2023/03/22 03:47:27;;;;;;;34.70;22.15;;;;;;;7.43;100.00;100561.56;7398081;19;20082;-70
2023/03/22 03:49:56;;;;;;;33.22;22.17;;;;;;;7.42;100.00;100559.81;7398041;19;20014;-70
2023/03/22 03:52:25;;;;;;;29.23;20.33;;;;;;;7.43;100.00;100561.56;7397626;19;20081;-70
2023/03/22 03:54:54;;;;;;;29.08;19.95;;;;;;;7.40;100.00;100548.56;7395022;19;20041;-70
2023/03/22 03:57:22;;;;;;;32.33;20.98;;;;;;;7.39;100.00;100555.50;7396230;19;20022;-70
2023/03/22 03:59:53;;;;;;;33.75;20.65;;;;;;;7.39;100.00;100555.50;7397368;19;20070;-70
2023/03/22 04:02:22;;;;;;;28.95;20.08;;;;;;;7.38;100.00;100553.81;7398023;19;20025;-70
2023/03/22 04:04:50;;;;;;;33.63;21.17;;;;;;;7.37;100.00;100548.56;7395235;19;20019;-70
2023/03/22 04:07:19;;;;;;;29.73;20.25;;;;;;;7.37;100.00;100551.19;7397051;19;20445;-70
2023/03/22 04:09:47;;;;;;;28.75;20.42;;;;;;;7.34;100.00;100542.53;7396957;19;20021;-69
2023/03/22 04:12:16;;;;;;;32.28;21.38;;;;;;;7.35;100.00;100538.16;7396798;19;20078;-70
2023/03/22 04:14:44;;;;;;;32.75;21.30;;;;;;;7.34;100.00;100549.47;7394642;19;20524;-70
2023/03/22 04:17:16;;;;;;;33.80;20.80;;;;;;;7.34;100.00;100545.13;7397092;19;20018;-70
2023/03/22 04:19:44;;;;;;;35.08;21.77;;;;;;;7.35;100.00;100548.59;7395573;19;20018;-70
2023/03/22 04:22:13;;;;;;;32.80;20.65;;;;;;;7.36;100.00;100546.88;7395037;19;20015;-70
2023/03/22 04:24:42;;;;;;;29.75;20.00;;;;;;;7.36;100.00;100544.25;7395917;19;20386;-70
2023/03/22 04:27:10;;;;;;;32.78;21.05;;;;;;;7.37;100.00;100546.84;7396307;19;20525;-71
2023/03/22 04:29:39;;;;;;;29.17;20.20;;;;;;;7.37;100.00;100552.06;7396572;19;20020;-70
2023/03/22 04:32:07;;;;;;;31.55;20.48;;;;;;;7.39;100.00;100549.44;7394350;19;20536;-70
2023/03/22 04:34:38;;;;;;;30.10;21.08;;;;;;;7.39;100.00;100550.28;7394550;19;20014;-71
2023/03/22 04:37:07;;;;;;;33.20;21.70;;;;;;;7.40;100.00;100548.56;7396649;19;20074;-70
2023/03/22 04:39:35;;;;;;;30.13;21.70;;;;;;;7.42;100.00;100559.81;7396043;19;20082;-70
2023/03/22 04:42:04;;;;;;;33.63;21.17;;;;;;;7.42;100.00;100558.09;7394582;19;20082;-70
2023/03/22 04:44:32;;;;;;;28.63;19.67;;;;;;;7.45;100.00;100557.19;7394629;19;20022;-70
2023/03/22 04:47:01;;;;;;;29.25;19.63;;;;;;;7.45;100.00;100552.81;7395782;19;20565;-70
2023/03/22 04:49:30;;;;;;;27.83;19.42;;;;;;;7.46;100.00;100553.69;7394753;19;20035;-70
2023/03/22 04:52:01;;;;;;;31.80;20.55;;;;;;;7.45;100.00;100544.13;7396930;19;20010;-70
2023/03/22 04:54:29;;;;;;;30.30;20.73;;;;;;;7.48;100.00;100549.31;7393925;19;20021;-69
2023/03/22 04:56:58;;;;;;;27.25;19.35;;;;;;;7.48;100.00;100549.31;7395438;19;20025;-69
2023/03/22 04:59:26;;;;;;;28.48;20.90;;;;;;;7.48;100.00;100544.97;7395788;19;20028;-70
2023/03/22 05:01:55;;;;;;;30.98;19.52;;;;;;;7.51;100.00;100544.06;7395053;19;20094;-70
2023/03/22 05:04:24;;;;;;;31.73;20.70;;;;;;;7.52;100.00;100545.81;7394063;19;20035;-70
2023/03/22 05:06:53;;;;;;;28.40;19.48;;;;;;;7.53;100.00;100544.03;7394311;19;20479;-70
2023/03/22 05:09:24;;;;;;;28.27;19.30;;;;;;;7.54;100.00;100538.78;7395413;19;20086;-70
2023/03/22 05:11:52;;;;;;;26.77;20.05;;;;;;;7.52;100.00;100530.13;7395395;19;20412;-71
2023/03/22 05:14:21;;;;;;;28.67;19.50;;;;;;;7.53;100.00;100533.59;7393637;19;20018;-69
2023/03/22 05:16:49;;;;;;;26.38;19.17;;;;;;;7.54;100.00;100533.56;7395265;19;20082;-70
2023/03/22 05:19:21;;;;;;;25.95;19.00;;;;;;;7.55;100.00;100537.91;7394932;19;20439;-69
2023/03/22 05:21:56;;;;;;;30.10;19.60;;;;;;;7.56;100.00;100544.88;7394417;19;20017;-69
2023/03/22 05:24:27;;;;;;;28.00;19.35;;;;;;;7.54;100.00;100528.34;7392758;19;20485;-69
2023/03/22 05:26:59;;;;;;;24.85;19.00;;;;;;;7.55;100.00;100524.88;7394569;19;20015;-69
2023/03/22 05:29:28;;;;;;;26.20;19.23;;;;;;;7.54;100.00;100525.75;7393830;19;20018;-69
2023/03/22 05:31:56;;;;;;;24.90;19.85;;;;;;;7.53;100.00;100524.00;7394637;19;20538;-69
2023/03/22 05:34:34;;;;;;;24.25;18.65;;;;;;;7.52;100.00;100511.88;7392442;19;20077;-69
2023/03/22 05:37:03;;;;;;;31.73;19.65;;;;;;;7.52;100.00;100514.47;7393150;19;20018;-70
2023/03/22 05:39:34;;;;;;;24.58;19.13;;;;;;;7.52;100.00;100518.81;7393919;19;20014;-69
2023/03/22 05:42:02;;;;;;;24.30;17.83;;;;;;;7.53;100.00;100523.16;7392220;19;20007;-70
2023/03/22 05:44:31;;;;;;;22.80;17.92;;;;;;;7.54;100.00;100522.28;7392096;19;20510;-70
2023/03/22 05:46:59;;;;;;;30.42;18.33;;;;;;;7.55;100.00;100522.25;7392974;19;20082;-70
2023/03/22 05:49:28;;;;;;;23.73;18.17;;;;;;;7.55;100.00;100519.63;7394034;19;20090;-69
2023/03/22 05:51:56;;;;;;;23.98;17.17;;;;;;;7.54;100.00;100517.91;7393945;19;20015;-68
2023/03/22 05:54:25;;;;;;;22.55;15.70;;;;;;;7.54;100.00;100517.06;7391873;19;20493;-69
2023/03/22 05:56:56;;;;;;;25.27;15.98;;;;;;;7.55;100.00;100517.03;7394051;19;20112;-70
2023/03/22 05:59:24;;;;;;;20.80;15.52;;;;;;;7.57;100.00;100512.66;7393918;19;20032;-69
2023/03/22 06:01:53;;;;;;;20.15;15.85;;;;;;;7.57;100.00;100506.56;7391273;19;20023;-69
2023/03/22 06:04:21;;;;;;;21.23;15.40;;;;;;;7.58;100.00;100508.28;7391041;19;20010;-69
2023/03/22 06:06:52;;;;;;;21.75;14.95;;;;;;;7.57;100.00;100512.66;7392550;19;20022;-70
2023/03/22 06:09:21;;;;;;;23.20;15.43;;;;;;;7.60;100.00;100512.59;7390677;19;20037;-69
2023/03/22 06:11:49;;;;;;;18.55;14.52;;;;;;;7.60;100.00;100515.22;7393006;19;20018;-72
2023/03/22 06:14:20;;;;;;;23.83;14.70;;;;;;;7.63;100.00;100512.59;7390911;19;20023;-70
2023/03/22 06:16:48;;;;;;;21.90;15.70;;;;;;;7.65;100.00;100510.81;7393069;19;20014;-69
2023/03/22 06:19:17;;;;;;;19.40;14.52;;;;;;;7.66;100.00;100512.53;7395246;19;20424;-70
2023/03/22 06:21:45;;;;;;;18.52;14.32;;;;;;;7.69;100.00;100511.63;7400236;19;20086;-71
2023/03/22 06:24:14;;;;;;;18.15;13.32;;;;;;;7.70;100.00;100513.34;7396783;19;20518;-69
2023/03/22 06:26:42;;;;;;;21.55;15.13;;;;;;;7.72;100.00;100506.38;7400248;19;20081;-70
2023/03/22 06:29:11;;;;;;;18.15;12.50;;;;;;;7.73;100.00;100508.09;7400257;19;20151;-69
2023/03/22 06:31:42;;;;;;;15.95;12.60;;;;;;;7.74;100.00;100506.34;7400058;19;20372;-70
2023/03/22 06:34:10;;;;;;;17.83;12.50;;;;;;;7.76;100.00;100513.28;7398974;19;20522;-70
2023/03/22 06:36:39;;;;;;;16.75;12.27;;;;;;;7.79;100.00;100515.84;7401653;19;20182;-70
2023/03/22 06:39:08;;;;;;;17.08;12.20;;;;;;;7.80;100.00;100517.56;7397945;19;20038;-70
2023/03/22 06:41:43;;;;;;;15.82;12.82;;;;;;;7.82;100.00;100513.19;7398286;19;20002;-70
2023/03/22 06:44:11;;;;;;;18.65;12.30;;;;;;;7.84;100.00;100515.78;7396923;19;20431;-70
2023/03/22 06:46:43;;;;;;;19.13;12.68;;;;;;;7.88;100.00;100524.44;7399829;19;20022;-70
2023/03/22 06:49:11;;;;;;;16.10;12.15;;;;;;;7.89;100.00;100524.41;7397799;19;20078;-70
2023/03/22 06:51:39;;;;;;;15.38;11.93;;;;;;;7.93;100.00;100528.69;7400083;19;20054;-69
2023/03/22 06:54:08;;;;;;;18.45;11.93;;;;;;;7.95;100.00;100529.56;7398131;19;20073;-70
2023/03/22 06:56:36;;;;;;;18.42;12.35;;;;;;;7.98;100.00;100533.88;7396827;19;20421;-70
2023/03/22 06:59:05;;;;;;;13.73;11.50;;;;;;;7.98;100.00;100534.72;7399418;19;20086;-70
2023/03/22 07:01:33;;;;;;;19.10;11.52;;;;;;;8.03;100.00;100534.66;7399463;19;20010;-69
2023/03/22 07:04:04;;;;;;;17.55;12.35;;;;;;;8.06;100.00;100542.47;7397526;19;20095;-69
2023/03/22 07:06:33;;;;;;;17.15;11.57;;;;;;;8.10;100.00;100543.25;7399355;19;20022;-69
2023/03/22 07:09:01;;;;;;;15.68;12.35;;;;;;;8.12;100.00;100546.72;7397073;19;20049;-68
2023/03/22 07:11:30;;;;;;;14.30;11.35;;;;;;;8.17;100.00;100544.06;7397932;19;20458;-68
2023/03/22 07:13:58;;;;;;;13.45;11.27;;;;;;;8.21;100.00;100536.13;7397520;19;20089;-68
2023/03/22 07:16:26;;;;;;;13.65;10.68;;;;;;;8.25;100.00;100532.59;7396196;19;20440;-68
2023/03/22 07:18:55;;;;;;;13.55;10.45;;;;;;;8.30;100.00;100536.00;7398987;19;20082;-68
2023/03/22 07:21:27;;;;;;;13.30;10.75;;;;;;;8.34;100.00;100528.09;7398860;19;20018;-68
2023/03/22 07:23:55;;;;;;;12.75;9.95;;;;;;;8.37;100.00;100533.31;7397318;19;20028;-68
2023/03/22 07:26:25;;;;;;;15.13;10.85;;;;;;;8.42;100.00;100528.84;7397070;19;20018;-69
2023/03/22 07:28:53;;;;;;;16.58;11.32;;;;;;;8.46;100.00;100518.34;7397601;19;20019;-69
2023/03/22 07:31:22;;;;;;;14.65;10.02;;;;;;;8.52;100.00;100527.84;7397744;19;20010;-69
2023/03/22 07:33:50;;;;;;;12.90;10.05;;;;;;;8.57;100.00;100522.53;7396749;19;20094;-69
2023/03/22 07:36:22;;;;;;;13.80;10.18;;;;;;;8.61;99.93;100524.22;7396128;19;20502;-69
2023/03/22 07:38:54;;;;;;;13.05;10.40;;;;;;;8.64;100.00;100514.56;7397534;19;20489;-68
2023/03/22 07:41:22;;;;;;;15.48;10.68;;;;;;;8.70;100.00;100520.56;7396406;19;20078;-68
2023/03/22 07:43:51;;;;;;;13.20;9.98;;;;;;;8.75;100.00;100522.22;7395892;19;20018;-70
2023/03/22 07:46:19;;;;;;;11.75;10.13;;;;;;;8.82;99.90;100512.53;7397627;19;20018;-69
2023/03/22 07:48:48;;;;;;;16.55;10.70;;;;;;;8.88;99.28;100517.59;7397695;19;20089;-68
2023/03/22 07:51:18;;;;;;;13.65;10.13;;;;;;;8.95;99.58;100506.16;7397385;19;20019;-69
2023/03/22 07:53:46;;;;;;;14.75;9.95;;;;;;;9.02;99.18;100500.81;7396356;19;20018;-68
2023/03/22 07:56:17;;;;;;;11.82;9.90;;;;;;;9.10;98.31;100499.75;7396147;19;20014;-68
2023/03/22 07:58:45;;;;;;;14.38;9.40;;;;;;;9.18;99.41;100502.22;7398077;19;20022;-67
2023/03/22 08:01:14;;;;;;;13.48;9.52;;;;;;;9.27;99.27;100511.66;7397650;19;20085;-69
2023/03/22 08:03:42;;;;;;;14.77;9.73;;;;;;;9.34;97.26;100517.63;7395324;19;20089;-70
2023/03/22 08:06:11;;;;;;;12.90;10.38;;;;;;;9.42;97.92;100508.72;7397937;19;20085;-69
2023/03/22 08:08:40;;;;;;;15.18;9.68;;;;;;;9.51;97.21;100515.50;7395829;19;20115;-68
2023/03/22 08:11:11;;;;;;;13.95;10.82;;;;;;;9.59;96.68;100518.84;7396533;19;20098;-69
2023/03/22 08:13:42;;;;;;;13.35;9.98;;;;;;;9.66;96.70;100516.94;7396494;19;20014;-68
2023/03/22 08:16:10;;;;;;;14.00;10.00;;;;;;;9.75;95.33;100508.03;7395953;19;20018;-69
2023/03/22 08:18:39;;;;;;;12.52;9.38;;;;;;;9.81;94.11;100514.88;7396292;19;20021;-68
2023/03/22 08:21:08;;;;;;;12.38;9.70;;;;;;;9.88;94.64;100512.13;7395188;19;20022;-70
2023/03/22 08:23:36;;;;;;;13.20;9.90;;;;;;;9.93;93.32;100509.38;7394880;19;20077;-67
2023/03/22 08:26:05;;;;;;;16.45;9.63;;;;;;;10.01;93.24;100506.56;7396425;19;20018;-68
2023/03/22 08:28:34;;;;;;;15.32;10.07;;;;;;;10.06;93.18;100515.19;7394001;19;20485;-68
2023/03/22 08:31:12;;;;;;;12.32;9.80;;;;;;;10.10;92.89;100504.59;7396041;19;20576;-69
2023/03/22 08:33:46;;;;;;;13.35;9.30;;;;;;;10.21;94.65;100509.59;7395685;19;20018;-67
2023/03/22 08:36:17;;;;;;;13.23;9.80;;;;;;;10.33;94.94;100507.59;7394459;19;20384;-70
2023/03/22 08:38:46;;;;;;;13.25;9.95;;;;;;;10.41;92.62;100500.41;7395333;19;20022;-69
2023/03/22 08:41:14;;;;;;;12.98;9.80;;;;;;;10.51;91.97;100501.88;7393914;19;20015;-70
2023/03/22 08:43:43;;;;;;;15.25;10.30;;;;;;;10.58;91.16;100494.75;7394595;19;20034;-70
2023/03/22 08:46:14;;;;;;;13.15;9.68;;;;;;;10.66;89.30;100489.28;7395955;19;20015;-70
2023/03/22 08:48:49;;;;;;;15.23;9.73;;;;;;;10.73;90.47;100489.09;7394434;19;20078;-70
2023/03/22 08:51:17;;;;;;;14.68;9.70;;;;;;;10.79;91.03;100489.81;7395442;19;20011;-69
2023/03/22 08:53:46;;;;;;;13.95;9.98;;;;;;;10.86;90.13;100486.16;7394024;19;20015;-70
2023/03/22 08:56:15;;;;;;;12.60;9.60;;;;;;;10.90;90.42;100478.13;7394150;19;20482;-69
2023/03/22 08:58:45;;;;;;;11.68;8.88;;;;;;;10.97;88.92;100473.59;7393492;19;20014;-69
2023/03/22 09:01:19;;;;;;;12.52;9.85;;;;;;;11.03;89.53;100464.66;7394909;19;20356;-70
2023/03/22 09:03:48;;;;;;;13.85;9.30;;;;;;;11.12;89.32;100474.06;7393365;19;20015;-69
2023/03/22 09:06:16;;;;;;;14.60;10.00;;;;;;;11.12;86.88;100460.91;7393765;19;20377;-69
2023/03/22 09:08:45;;;;;;;13.25;9.35;;;;;;;11.17;86.94;100459.03;7393950;19;20027;-70
2023/03/22 09:11:15;;;;;;;12.82;9.57;;;;;;;11.18;87.82;100460.75;7393986;19;20038;-70
2023/03/22 09:13:43;;;;;;;13.82;10.18;;;;;;;11.22;87.37;100452.75;7393242;19;20406;-71
2023/03/22 09:16:12;;;;;;;17.13;10.30;;;;;;;11.22;85.56;100450.13;7393352;19;20015;-71
2023/03/22 09:18:43;;;;;;;13.65;9.40;;;;;;;11.19;84.92;100439.69;7395074;19;20025;-70
2023/03/22 09:21:12;;;;;;;14.13;9.98;;;;;;;11.25;86.28;100443.91;7394125;19;20086;-70
2023/03/22 09:23:41;;;;;;;10.90;9.15;;;;;;;11.21;85.19;100445.78;7393915;19;20035;-69
2023/03/22 09:26:11;;;;;;;12.80;9.13;;;;;;;11.21;79.90;100451.03;7394489;19;20018;-70
2023/03/22 09:28:39;;;;;;;11.60;9.50;;;;;;;11.21;85.13;100442.31;7393857;19;20546;-70
2023/03/22 09:31:10;;;;;;;12.98;9.23;;;;;;;11.25;85.36;100436.03;7393939;19;20015;-71
2023/03/22 09:33:40;;;;;;;13.68;10.45;;;;;;;11.31;83.95;100432.34;7392457;19;20082;-69
2023/03/22 09:36:12;;;;;;;11.95;9.75;;;;;;;11.35;83.95;100428.75;7393820;19;20021;-69
2023/03/22 09:38:41;;;;;;;10.77;9.32;;;;;;;11.45;81.77;100431.94;7394455;19;20324;-69
2023/03/22 09:41:16;;;;;;;14.50;9.07;;;;;;;11.53;83.94;100425.56;7393676;19;20038;-70
2023/03/22 09:43:46;;;;;;;;;;;;;;;11.63;79.86;100430.53;7393619;19;20074;-70
2023/03/22 09:46:19;;;;;;;12.85;9.77;;;;;;;11.72;84.67;100424.97;7394423;19;19915;-68
2023/03/22 09:48:50;;;;;;;11.27;8.77;;;;;;;11.80;84.72;100403.72;7393627;19;20020;-68
2023/03/22 09:51:30;;;;;;;10.65;8.73;;;;;;;11.95;84.77;100418.13;7394281;19;20015;-69
2023/03/22 09:53:59;;;;;;;11.73;8.82;;;;;;;12.05;84.37;100425.69;7393263;19;20082;-70
2023/03/22 09:56:31;;;;;;;9.75;7.47;;;;;;;12.14;81.55;100426.31;7400253;19;20085;-71
2023/03/22 09:59:10;;;;;;;13.20;7.93;;;;;;;12.20;75.93;100432.22;7402228;19;20078;-69
2023/03/22 10:01:46;;;;;;;14.20;9.25;;;;;;;12.32;77.05;100440.59;7401896;19;20018;-70
2023/03/22 10:04:28;;;;;;;12.63;9.02;;;;;;;12.41;73.58;100440.31;7399268;19;20014;-70
2023/03/22 10:07:08;;;;;;;11.18;8.48;;;;;;;12.46;76.99;100435.75;7401039;19;20014;-70
2023/03/22 10:09:47;;;;;;;11.82;8.52;;;;;;;12.52;75.29;100430.28;7401662;19;20090;-69
2023/03/22 10:12:21;;;;;;;13.55;7.80;;;;;;;12.57;75.70;100427.44;7401542;19;20046;-69
2023/03/22 10:14:54;;;;;;;9.52;7.65;;;;;;;12.63;74.07;100426.41;7397197;19;20074;-69
2023/03/22 10:17:27;;;;;;;10.20;7.85;;;;;;;12.68;75.51;100420.03;7398224;19;20485;-69
2023/03/22 10:20:00;;;;;;;12.02;7.93;;;;;;;12.75;76.74;100422.44;7401404;19;20077;-69
2023/03/22 10:22:35;;;;;;;9.35;7.20;;;;;;;12.80;75.42;100418.75;7401050;19;20070;-70
2023/03/22 10:25:06;;;;;;;11.70;8.38;;;;;;;12.88;75.98;100421.09;7400610;19;20038;-70
2023/03/22 10:27:36;;;;;;;10.93;8.02;;;;;;;12.92;75.53;100419.22;7401151;19;20426;-70
2023/03/22 10:30:11;;;;;;;10.05;7.55;;;;;;;12.95;71.95;100412.03;7400708;19;20054;-69
2023/03/22 10:32:44;;;;;;;12.98;8.63;;;;;;;13.04;72.70;100403.81;7400384;19;20082;-69
2023/03/22 10:35:15;;;;;;;10.57;8.02;;;;;;;13.12;73.09;100394.78;7401008;19;20094;-70
2023/03/22 10:37:50;;;;;;;11.43;8.63;;;;;;;13.19;68.90;100396.25;7397364;19;20010;-70
2023/03/22 10:40:22;;;;;;;11.50;7.82;;;;;;;13.28;73.00;100390.66;7399948;19;20019;-70
2023/03/22 10:42:56;;;;;;;11.43;8.45;;;;;;;13.37;74.64;100381.56;7397404;19;20073;-69
2023/03/22 10:45:27;;;;;;;12.32;7.45;;;;;;;13.46;72.92;100373.28;7400692;19;20411;-69
2023/03/22 10:48:02;;;;;;;12.63;8.32;;;;;;;13.56;71.30;100367.63;7400161;19;20027;-69
2023/03/22 10:50:34;;;;;;;19.27;13.63;;;;;;;13.63;72.52;100364.69;7399749;19;20011;-68
2023/03/22 10:53:08;;;;;;;15.70;11.40;;;;;;;13.69;72.21;100358.31;7398329;19;20011;-69
2023/03/22 10:55:41;;;;;;;13.27;11.15;;;;;;;13.74;71.11;100371.31;7399171;19;20070;-69
2023/03/22 10:58:17;;;;;;;10.93;8.18;;;;;;;13.76;69.44;100359.78;7398376;19;20085;-69
2023/03/22 11:00:47;;;;;;;10.45;8.35;;;;;;;13.83;72.44;100365.66;7399967;19;20018;-68
2023/03/22 11:03:29;;;;;;;10.63;7.10;;;;;;;13.88;67.06;100358.41;7398898;19;20029;-69
2023/03/22 11:06:02;;;;;;;10.38;7.53;;;;;;;13.96;65.54;100356.31;7398504;19;20015;-69
2023/03/22 11:08:40;;;;;;;7.47;6.50;;;;;;;14.06;62.72;100361.19;7398947;19;20074;-68
2023/03/22 11:11:16;;;;;;;8.27;6.38;;;;;;;14.07;62.60;100353.22;7398803;19;20079;-68
2023/03/22 11:13:44;;;;;;;7.57;5.65;;;;;;;14.14;66.43;100362.59;7397399;19;20021;-69
2023/03/22 11:16:19;;;;;;;9.73;6.07;;;;;;;14.18;66.12;100353.63;7398323;19;20082;-69
2023/03/22 11:18:48;;;;;;;8.85;6.03;;;;;;;14.20;64.48;100347.41;7399326;19;20486;-70
2023/03/22 11:21:19;;;;;;;7.47;5.68;;;;;;;14.23;65.44;100349.91;7398798;19;20023;-70
2023/03/22 11:23:59;;;;;;;11.20;6.75;;;;;;;14.28;63.24;100364.63;7396076;19;20462;-69
2023/03/22 11:26:32;;;;;;;11.93;8.80;;;;;;;14.31;63.16;100351.28;7398359;19;20015;-68
2023/03/22 11:29:08;;;;;;;8.18;6.72;;;;;;;14.38;64.79;100351.03;7396162;19;20019;-69
2023/03/22 11:31:58;;;;;;;7.63;5.75;;;;;;;14.44;64.60;100342.84;7395508;19;20051;-68